Time;durP1;ratioP1;P1;durP2;ratioP2;P2;SDS_P1;SDS_P2;PMS_P1;PMS_P2;Temp;Humidity;BMP_temperature;BMP_pressure;BME280_temperature;BME280_humidity;BME280_pressure;Samples;Min_cycle;Max_cycle;Signal;HPM_P1;HPM_P2
2023/05/03 00:00:09;;;;;;;;;;;;;;;;;;5176399;27;1950;-38
2023/05/03 00:02:38;;;;;;;;;;;;;;;;;;5176016;27;1880;-38
2023/05/03 00:05:11;;;;;;;;;;;;;;;;;;5176204;27;1959;-38
2023/05/03 00:07:43;;;;;;;;;;;;;;;;;;5175956;27;1883;-37
2023/05/03 00:10:17;;;;;;;;;;;;;;;;;;5176047;27;1909;-37
2023/05/03 00:12:44;;;;;;;;;;;;;;;;;;5175856;27;1981;-39
2023/05/03 00:15:11;;;;;;;;;;;;;;;;;;5176123;27;2016;-38
2023/05/03 00:17:38;;;;;;;;;;;;;;;;;;5175883;27;2214;-41
2023/05/03 00:20:06;;;;;;;;;;;;;;;;;;5175738;27;1982;-40
2023/05/03 00:22:34;;;;;;;;;;;;;;;;;;5175883;27;1892;-46
2023/05/03 00:25:01;;;;;;;;;;;;;;;;;;5175768;27;2150;-38
2023/05/03 00:27:28;;;;;;;;;;;;;;;;;;5175799;27;2071;-36
2023/05/03 00:29:55;;;;;;;;;;;;;;;;;;5157199;27;2061;-38
2023/05/03 00:32:23;;;;;;;;;;;;;;;;;;5175988;27;1940;-42
2023/05/03 00:34:53;;;;;;;;;;;;;;;;;;5175685;27;1906;-37
2023/05/03 00:37:21;;;;;;;;;;;;;;;;;;5156902;27;1931;-36
2023/05/03 00:39:48;;;;;;;;;;;;;;;;;;5175721;27;1941;-37
2023/05/03 00:42:16;;;;;;;;;;;;;;;;;;5175079;27;1918;-38
2023/05/03 00:44:43;;;;;;;;;;;;;;;;;;5156705;27;1941;-38
2023/05/03 00:47:10;;;;;;;;;;;;;;;;;;5175186;27;1969;-37
2023/05/03 00:49:37;;;;;;;;;;;;;;;;;;5175235;27;2133;-38
2023/05/03 00:52:05;;;;;;;;;;;;;;;;;;5175155;27;1955;-44
2023/05/03 00:54:34;;;;;;;;;;;;;;;;;;5161098;27;2097;-44
2023/05/03 00:57:03;;;;;;;;;;;;;;;;;;5135496;27;1910;-45
2023/05/03 00:59:31;;;;;;;;;;;;;;;;;;5154136;27;1975;-41
2023/05/03 01:01:58;;;;;;;;;;;;;;;;;;5135635;27;2038;-40
2023/05/03 01:04:27;;;;;;;;;;;;;;;;;;5154121;27;2105;-41
2023/05/03 01:07:11;;;;;;;;;;;;;;;;;;5154330;27;1994;-40
2023/05/03 01:09:52;;;;;;;;;;;;;;;;;;5153956;27;2007;-49
2023/05/03 01:12:22;;;;;;;;;;;;;;;;;;5153839;27;1882;-36
2023/05/03 01:15:06;;;;;;;;;;;;;;;;;;5153821;27;2160;-37
2023/05/03 01:17:35;;;;;;;;;;;;;;;;;;5153905;27;1952;-38
2023/05/03 01:20:07;;;;;;;;;;;;;;;;;;5153728;27;1916;-41
2023/05/03 01:22:38;;;;;;;;;;;;;;;;;;5135061;27;2084;-37
2023/05/03 01:25:10;;;;;;;;;;;;;;;;;;5153764;27;1852;-42
2023/05/03 01:27:37;;;;;;;;;;;;;;;;;;5153803;27;1921;-39
2023/05/03 01:30:06;;;;;;;;;;;;;;;;;;5134947;27;2024;-37
2023/05/03 01:32:39;;;;;;;;;;;;;;;;;;5118216;27;2050;-36
2023/05/03 01:35:27;;;;;;;;;;;;;;;;;;5153400;27;1942;-37
2023/05/03 01:37:56;;;;;;;;;;;;;;;;;;5153393;27;2038;-37
2023/05/03 01:40:25;;;;;;;;;;;;;;;;;;5153706;27;1874;-38
2023/05/03 01:42:53;;;;;;;;;;;;;;;;;;5153626;27;2066;-36
2023/05/03 01:45:21;;;;;;;;;;;;;;;;;;5134686;27;2202;-37
2023/05/03 01:47:48;;;;;;;;;;;;;;;;;;5153227;27;1942;-38
2023/05/03 01:50:15;;;;;;;;;;;;;;;;;;5134435;27;1930;-37
2023/05/03 01:52:44;;;;;;;;;;;;;;;;;;5152491;27;2245;-36
2023/05/03 01:55:11;;;;;;;;;;;;;;;;;;5172745;27;2074;-36
2023/05/03 01:57:38;;;;;;;;;;;;;;;;;;5155403;27;2039;-38
2023/05/03 02:00:05;;;;;;;;;;;;;;;;;;5155042;27;1866;-37
2023/05/03 02:02:38;;;;;;;;;;;;;;;;;;5174047;27;2051;-37
2023/05/03 02:05:05;;;;;;;;;;;;;;;;;;5173821;27;2096;-37
2023/05/03 02:07:32;;;;;;;;;;;;;;;;;;5173839;27;2022;-43
2023/05/03 02:10:00;;;;;;;;;;;;;;;;;;5155032;27;2402;-37
2023/05/03 02:12:27;;;;;;;;;;;;;;;;;;5173977;27;2033;-38
2023/05/03 02:14:54;;;;;;;;;;;;;;;;;;5155232;27;1999;-37
2023/05/03 02:17:25;;;;;;;;;;;;;;;;;;5173959;27;1940;-43
2023/05/03 02:19:52;;;;;;;;;;;;;;;;;;5172815;27;2004;-41
2023/05/03 02:22:19;;;;;;;;;;;;;;;;;;5134317;27;2213;-39
2023/05/03 02:24:47;;;;;;;;;;;;;;;;;;5152771;27;2117;-41
2023/05/03 02:27:16;;;;;;;;;;;;;;;;;;5134337;27;1846;-37
2023/05/03 02:29:43;;;;;;;;;;;;;;;;;;5152925;27;2276;-35
2023/05/03 02:32:11;;;;;;;;;;;;;;;;;;5134209;27;1971;-37
2023/05/03 02:34:38;;;;;;;;;;;;;;;;;;5152784;27;1914;-37
2023/05/03 02:37:07;;;;;;;;;;;;;;;;;;5117470;27;1550;-36
2023/05/03 02:39:34;;;;;;;;;;;;;;;;;;5152799;27;2226;-37
2023/05/03 02:42:03;;;;;;;;;;;;;;;;;;5134043;27;1984;-38
2023/05/03 02:44:30;;;;;;;;;;;;;;;;;;5152950;27;2154;-37
2023/05/03 02:46:59;;;;;;;;;;;;;;;;;;5134430;27;1919;-35
2023/05/03 02:49:26;;;;;;;;;;;;;;;;;;5152503;27;2075;-36
2023/05/03 02:51:55;;;;;;;;;;;;;;;;;;5134089;27;1987;-37
2023/05/03 02:54:24;;;;;;;;;;;;;;;;;;5165350;27;1825;-37
2023/05/03 02:56:52;;;;;;;;;;;;;;;;;;5155022;27;1760;-37
2023/05/03 02:59:19;;;;;;;;;;;;;;;;;;5173089;27;1676;-44
2023/05/03 03:01:46;;;;;;;;;;;;;;;;;;5154504;27;2075;-45
2023/05/03 03:04:14;;;;;;;;;;;;;;;;;;5155307;27;2034;-36
2023/05/03 03:06:41;;;;;;;;;;;;;;;;;;5177198;27;2174;-44
2023/05/03 03:09:09;;;;;;;;;;;;;;;;;;5177318;27;1942;-37
2023/05/03 03:11:36;;;;;;;;;;;;;;;;;;5177130;27;1913;-37
2023/05/03 03:14:03;;;;;;;;;;;;;;;;;;5177494;27;1977;-37
2023/05/03 03:16:30;;;;;;;;;;;;;;;;;;5177328;27;1586;-38
2023/05/03 03:18:58;;;;;;;;;;;;;;;;;;5177050;27;2161;-37
2023/05/03 03:21:27;;;;;;;;;;;;;;;;;;5158290;27;2023;-50
2023/05/03 03:23:55;;;;;;;;;;;;;;;;;;5158363;27;2253;-56
2023/05/03 03:26:23;;;;;;;;;;;;;;;;;;5146131;27;2029;-43
2023/05/03 03:28:53;;;;;;;;;;;;;;;;;;5137454;27;2146;-37
2023/05/03 03:31:24;;;;;;;;;;;;;;;;;;5155932;27;2045;-38
2023/05/03 03:33:54;;;;;;;;;;;;;;;;;;5137431;27;1950;-36
2023/05/03 03:36:22;;;;;;;;;;;;;;;;;;5137236;27;2453;-39
2023/05/03 03:38:51;;;;;;;;;;;;;;;;;;5155985;27;2007;-38
2023/05/03 03:41:18;;;;;;;;;;;;;;;;;;5156046;27;2039;-38
2023/05/03 03:43:46;;;;;;;;;;;;;;;;;;5137281;27;2001;-45
2023/05/03 03:46:17;;;;;;;;;;;;;;;;;;5137008;27;1895;-39
2023/05/03 03:48:48;;;;;;;;;;;;;;;;;;5137160;27;1948;-38
2023/05/03 03:51:15;;;;;;;;;;;;;;;;;;5137092;27;1979;-37
2023/05/03 03:53:47;;;;;;;;;;;;;;;;;;5144153;27;1403;-37
2023/05/03 03:56:15;;;;;;;;;;;;;;;;;;5157676;27;2072;-37
2023/05/03 03:58:44;;;;;;;;;;;;;;;;;;5157639;27;2039;-37
2023/05/03 04:01:12;;;;;;;;;;;;;;;;;;5176172;27;2102;-38
2023/05/03 04:03:39;;;;;;;;;;;;;;;;;;5157523;27;2157;-54
2023/05/03 04:06:06;;;;;;;;;;;;;;;;;;5157794;27;1892;-38
2023/05/03 04:08:34;;;;;;;;;;;;;;;;;;5157578;27;2058;-41
2023/05/03 04:11:02;;;;;;;;;;;;;;;;;;5157373;27;1982;-40
2023/05/03 04:13:34;;;;;;;;;;;;;;;;;;5157823;27;2038;-37
2023/05/03 04:16:01;;;;;;;;;;;;;;;;;;5175770;27;1939;-39
2023/05/03 04:18:31;;;;;;;;;;;;;;;;;;5157485;27;1898;-38
2023/05/03 04:20:59;;;;;;;;;;;;;;;;;;5176019;27;1904;-38
2023/05/03 04:23:26;;;;;;;;;;;;;;;;;;5157342;27;1897;-39
2023/05/03 04:25:53;;;;;;;;;;;;;;;;;;5175815;27;1724;-39
2023/05/03 04:28:22;;;;;;;;;;;;;;;;;;5157214;27;2105;-45
2023/05/03 04:30:50;;;;;;;;;;;;;;;;;;5175595;27;2134;-38
2023/05/03 04:33:22;;;;;;;;;;;;;;;;;;5175688;27;2010;-43
2023/05/03 04:35:51;;;;;;;;;;;;;;;;;;5156887;27;1969;-40
2023/05/03 04:38:19;;;;;;;;;;;;;;;;;;5156726;27;1995;-38
2023/05/03 04:40:47;;;;;;;;;;;;;;;;;;5156778;27;1933;-39
2023/05/03 04:43:14;;;;;;;;;;;;;;;;;;5175621;27;2390;-39
2023/05/03 04:45:44;;;;;;;;;;;;;;;;;;5156613;27;2005;-39
2023/05/03 04:48:19;;;;;;;;;;;;;;;;;;5156886;27;2509;-43
2023/05/03 04:50:47;;;;;;;;;;;;;;;;;;5156320;27;1913;-38
2023/05/03 04:53:16;;;;;;;;;;;;;;;;;;5153276;27;2036;-38
2023/05/03 04:55:50;;;;;;;;;;;;;;;;;;5135668;27;2049;-37
2023/05/03 04:58:18;;;;;;;;;;;;;;;;;;5135888;27;1979;-38
2023/05/03 05:00:47;;;;;;;;;;;;;;;;;;5135775;27;2116;-41
2023/05/03 05:03:22;;;;;;;;;;;;;;;;;;5135671;27;1966;-37
2023/05/03 05:05:50;;;;;;;;;;;;;;;;;;5135564;27;1871;-39
2023/05/03 05:08:19;;;;;;;;;;;;;;;;;;5135633;27;2359;-38
2023/05/03 05:10:52;;;;;;;;;;;;;;;;;;5135389;27;1905;-37
2023/05/03 05:13:23;;;;;;;;;;;;;;;;;;5135491;27;2160;-38
2023/05/03 05:15:51;;;;;;;;;;;;;;;;;;5153771;27;2114;-37
2023/05/03 05:18:18;;;;;;;;;;;;;;;;;;5154061;27;2099;-38
2023/05/03 05:20:47;;;;;;;;;;;;;;;;;;5135139;27;2026;-38
2023/05/03 05:23:15;;;;;;;;;;;;;;;;;;5135289;27;2108;-38
2023/05/03 05:25:45;;;;;;;;;;;;;;;;;;5135312;27;2105;-42
2023/05/03 05:28:14;;;;;;;;;;;;;;;;;;5153540;27;1921;-38
2023/05/03 05:30:42;;;;;;;;;;;;;;;;;;5135007;27;1978;-38
2023/05/03 05:33:09;;;;;;;;;;;;;;;;;;5135198;27;1991;-36
2023/05/03 05:35:37;;;;;;;;;;;;;;;;;;5135213;27;1893;-38
2023/05/03 05:38:04;;;;;;;;;;;;;;;;;;5153476;27;2127;-37
2023/05/03 05:40:32;;;;;;;;;;;;;;;;;;5134856;27;2007;-40
2023/05/03 05:43:00;;;;;;;;;;;;;;;;;;5134595;27;1829;-38
2023/05/03 05:45:30;;;;;;;;;;;;;;;;;;5134950;27;1987;-38
2023/05/03 05:47:57;;;;;;;;;;;;;;;;;;5134712;27;1860;-37
2023/05/03 05:50:25;;;;;;;;;;;;;;;;;;5134612;27;1856;-38
2023/05/03 05:52:58;;;;;;;;;;;;;;;;;;5134962;27;1968;-38
2023/05/03 05:55:29;;;;;;;;;;;;;;;;;;5155367;27;2221;-40
2023/05/03 05:57:57;;;;;;;;;;;;;;;;;;5155029;27;1985;-38
2023/05/03 06:00:33;;;;;;;;;;;;;;;;;;5155553;27;1843;-38
2023/05/03 06:03:01;;;;;;;;;;;;;;;;;;5174177;27;1781;-36
2023/05/03 06:05:29;;;;;;;;;;;;;;;;;;5155358;27;2159;-36
2023/05/03 06:07:56;;;;;;;;;;;;;;;;;;5173920;27;1852;-38
2023/05/03 06:10:23;;;;;;;;;;;;;;;;;;5173962;27;2005;-38
2023/05/03 06:12:53;;;;;;;;;;;;;;;;;;5155104;27;2413;-38
2023/05/03 06:15:23;;;;;;;;;;;;;;;;;;5155063;27;2024;-42
2023/05/03 06:17:50;;;;;;;;;;;;;;;;;;5155084;27;2023;-39
2023/05/03 06:20:19;;;;;;;;;;;;;;;;;;5154983;27;1869;-40
2023/05/03 06:22:48;;;;;;;;;;;;;;;;;;5155030;27;2120;-37
2023/05/03 06:25:16;;;;;;;;;;;;;;;;;;5173930;27;1899;-39
2023/05/03 06:27:47;;;;;;;;;;;;;;;;;;5155248;27;1865;-37
2023/05/03 06:30:16;;;;;;;;;;;;;;;;;;5154987;27;2130;-38
2023/05/03 06:32:46;;;;;;;;;;;;;;;;;;5155084;27;1973;-37
2023/05/03 06:35:14;;;;;;;;;;;;;;;;;;5154859;27;2081;-39
2023/05/03 06:37:42;;;;;;;;;;;;;;;;;;5173747;27;2061;-37
2023/05/03 06:40:10;;;;;;;;;;;;;;;;;;5157381;27;2290;-43
2023/05/03 06:42:37;;;;;;;;;;;;;;;;;;5177904;27;1813;-38
2023/05/03 06:45:11;;;;;;;;;;;;;;;;;;5159233;27;2020;-37
2023/05/03 06:47:41;;;;;;;;;;;;;;;;;;5158993;27;1942;-38
2023/05/03 06:50:09;;;;;;;;;;;;;;;;;;5159040;27;1927;-37
2023/05/03 06:52:36;;;;;;;;;;;;;;;;;;5158797;27;1974;-39
2023/05/03 06:55:04;;;;;;;;;;;;;;;;;;5158943;27;2121;-38
2023/05/03 06:57:31;;;;;;;;;;;;;;;;;;5156682;27;1842;-37
2023/05/03 06:59:58;;;;;;;;;;;;;;;;;;5138146;27;1802;-59
2023/05/03 07:02:26;;;;;;;;;;;;;;;;;;5156785;27;1926;-38
2023/05/03 07:04:53;;;;;;;;;;;;;;;;;;5156707;27;2007;-38
2023/05/03 07:07:20;;;;;;;;;;;;;;;;;;5156390;27;1964;-38
2023/05/03 07:09:48;;;;;;;;;;;;;;;;;;5156597;27;2100;-57
2023/05/03 07:12:17;;;;;;;;;;;;;;;;;;5156576;27;1911;-51
2023/05/03 07:14:46;;;;;;;;;;;;;;;;;;5156501;27;1920;-58
2023/05/03 07:17:13;;;;;;;;;;;;;;;;;;5156518;27;1740;-60
2023/05/03 07:19:40;;;;;;;;;;;;;;;;;;5156201;27;2188;-44
2023/05/03 07:22:07;;;;;;;;;;;;;;;;;;5156385;27;2000;-59
2023/05/03 07:24:35;;;;;;;;;;;;;;;;;;5156308;27;1788;-39
2023/05/03 07:27:02;;;;;;;;;;;;;;;;;;5155911;27;2110;-39
2023/05/03 07:29:29;;;;;;;;;;;;;;;;;;5156081;27;1791;-39
2023/05/03 07:31:57;;;;;;;;;;;;;;;;;;5155966;27;1984;-39
2023/05/03 07:34:24;;;;;;;;;;;;;;;;;;5156126;27;1964;-38
2023/05/03 07:36:52;;;;;;;;;;;;;;;;;;5156332;27;2138;-39
2023/05/03 07:39:21;;;;;;;;;;;;;;;;;;5155958;27;2194;-38
2023/05/03 07:41:50;;;;;;;;;;;;;;;;;;5155852;27;2008;-39
2023/05/03 07:44:19;;;;;;;;;;;;;;;;;;5155774;27;2050;-39
2023/05/03 07:46:48;;;;;;;;;;;;;;;;;;5155939;27;2071;-44
2023/05/03 07:49:17;;;;;;;;;;;;;;;;;;5155704;27;2166;-41
2023/05/03 07:51:47;;;;;;;;;;;;;;;;;;5154562;27;1976;-39
2023/05/03 07:54:16;;;;;;;;;;;;;;;;;;5166649;27;1839;-38
2023/05/03 07:56:48;;;;;;;;;;;;;;;;;;5176490;27;1867;-39
2023/05/03 07:59:17;;;;;;;;;;;;;;;;;;5176725;27;1921;-39
2023/05/03 08:01:45;;;;;;;;;;;;;;;;;;5176199;27;1827;-38
2023/05/03 08:04:13;;;;;;;;;;;;;;;;;;5158008;27;2270;-44
2023/05/03 08:06:41;;;;;;;;;;;;;;;;;;5175957;27;2086;-39
2023/05/03 08:09:10;;;;;;;;;;;;;;;;;;5176327;27;1917;-44
2023/05/03 08:11:37;;;;;;;;;;;;;;;;;;5176094;27;1914;-39
2023/05/03 08:14:05;;;;;;;;;;;;;;;;;;5166060;27;1977;-46
2023/05/03 08:16:32;;;;;;;;;;;;;;;;;;5155337;27;2144;-39
2023/05/03 08:18:59;;;;;;;;;;;;;;;;;;5155066;27;2158;-40
2023/05/03 08:21:27;;;;;;;;;;;;;;;;;;5154988;27;1963;-39
2023/05/03 08:23:54;;;;;;;;;;;;;;;;;;5155047;27;1218;-40
2023/05/03 08:26:23;;;;;;;;;;;;;;;;;;5155229;27;2050;-39
2023/05/03 08:28:50;;;;;;;;;;;;;;;;;;5155197;27;1826;-46
2023/05/03 08:31:17;;;;;;;;;;;;;;;;;;5154827;27;2079;-39
2023/05/03 08:33:44;;;;;;;;;;;;;;;;;;5154929;27;2037;-38
2023/05/03 08:36:11;;;;;;;;;;;;;;;;;;5154675;27;2172;-42
2023/05/03 08:38:40;;;;;;;;;;;;;;;;;;5154742;27;1959;-39
2023/05/03 08:41:13;;;;;;;;;;;;;;;;;;5154811;27;1969;-39
2023/05/03 08:43:42;;;;;;;;;;;;;;;;;;5154597;27;1939;-38
2023/05/03 08:46:12;;;;;;;;;;;;;;;;;;5154534;27;2069;-39
2023/05/03 08:48:39;;;;;;;;;;;;;;;;;;5154591;27;2010;-40
2023/05/03 08:51:08;;;;;;;;;;;;;;;;;;5154536;27;1871;-41
2023/05/03 08:53:36;;;;;;;;;;;;;;;;;;5160067;27;2023;-38
2023/05/03 08:56:07;;;;;;;;;;;;;;;;;;5175391;27;1986;-39
2023/05/03 08:58:35;;;;;;;;;;;;;;;;;;5175160;27;2108;-38
2023/05/03 09:01:03;;;;;;;;;;;;;;;;;;5174944;27;2030;-54
2023/05/03 09:03:31;;;;;;;;;;;;;;;;;;5174920;27;1867;-38
2023/05/03 09:06:01;;;;;;;;;;;;;;;;;;5174921;27;1974;-39
2023/05/03 09:08:29;;;;;;;;;;;;;;;;;;5174950;27;1983;-40
2023/05/03 09:10:57;;;;;;;;;;;;;;;;;;5174962;27;2010;-42
2023/05/03 09:13:28;;;;;;;;;;;;;;;;;;5175123;27;1913;-38
2023/05/03 09:15:56;;;;;;;;;;;;;;;;;;5175033;27;1798;-43
2023/05/03 09:18:24;;;;;;;;;;;;;;;;;;5174992;27;2031;-39
2023/05/03 09:20:51;;;;;;;;;;;;;;;;;;5175052;27;1973;-38
2023/05/03 09:23:25;;;;;;;;;;;;;;;;;;5174608;27;1947;-40
2023/05/03 09:25:52;;;;;;;;;;;;;;;;;;5174845;27;1845;-38
2023/05/03 09:28:20;;;;;;;;;;;;;;;;;;5174520;27;2091;-38
2023/05/03 09:30:48;;;;;;;;;;;;;;;;;;5174863;27;1849;-39
2023/05/03 09:33:27;;;;;;;;;;;;;;;;;;5174325;27;1974;-39
2023/05/03 09:35:58;;;;;;;;;;;;;;;;;;5174852;27;2065;-56
2023/05/03 09:38:29;;;;;;;;;;;;;;;;;;5174463;27;2312;-39
2023/05/03 09:40:57;;;;;;;;;;;;;;;;;;5174589;27;1962;-39
2023/05/03 09:43:24;;;;;;;;;;;;;;;;;;5174468;27;2069;-39
2023/05/03 09:45:51;;;;;;;;;;;;;;;;;;5174273;27;1979;-39
2023/05/03 09:48:22;;;;;;;;;;;;;;;;;;5174220;27;1957;-40
2023/05/03 09:50:50;;;;;;;;;;;;;;;;;;5174170;27;2265;-38
2023/05/03 09:53:19;;;;;;;;;;;;;;;;;;5170553;27;2176;-39
2023/05/03 09:55:49;;;;;;;;;;;;;;;;;;5152957;27;1877;-40
2023/05/03 09:58:17;;;;;;;;;;;;;;;;;;5153106;27;2110;-44
2023/05/03 10:00:45;;;;;;;;;;;;;;;;;;5153170;27;2021;-43
2023/05/03 10:03:17;;;;;;;;;;;;;;;;;;5153071;27;1918;-39
2023/05/03 10:05:46;;;;;;;;;;;;;;;;;;5153159;27;2075;-38
2023/05/03 10:08:53;;;;;;;;;;;;;;;;;;5152752;27;2059;-39
2023/05/03 10:11:22;;;;;;;;;;;;;;;;;;5048656;28;2077;-40
2023/05/03 10:13:49;;;;;;;;;;;;;;;;;;5048196;28;1955;-39
2023/05/03 10:16:22;;;;;;;;;;;;;;;;;;5102109;27;1991;-38
2023/05/03 10:18:59;;;;;;;;;;;;;;;;;;5153073;27;2157;-38
2023/05/03 10:21:45;;;;;;;;;;;;;;;;;;5152915;27;1989;-40
2023/05/03 10:24:14;;;;;;;;;;;;;;;;;;5152922;27;1909;-43
2023/05/03 10:26:48;;;;;;;;;;;;;;;;;;5152848;27;2109;-39
2023/05/03 10:29:34;;;;;;;;;;;;;;;;;;5152602;27;2058;-41
2023/05/03 10:32:01;;;;;;;;;;;;;;;;;;5152652;27;1983;-47
2023/05/03 10:34:32;;;;;;;;;;;;;;;;;;5152980;27;1852;-39
2023/05/03 10:37:01;;;;;;;;;;;;;;;;;;5153058;27;2000;-40
2023/05/03 10:39:29;;;;;;;;;;;;;;;;;;5153005;27;1961;-43
2023/05/03 10:41:58;;;;;;;;;;;;;;;;;;5153012;27;1930;-39
2023/05/03 10:44:26;;;;;;;;;;;;;;;;;;5152632;27;1930;-40
2023/05/03 10:46:54;;;;;;;;;;;;;;;;;;5152713;27;1789;-39
2023/05/03 10:49:25;;;;;;;;;;;;;;;;;;5152432;27;1994;-40
2023/05/03 10:51:52;;;;;;;;;;;;;;;;;;5166638;27;1771;-47
2023/05/03 10:54:19;;;;;;;;;;;;;;;;;;5173194;27;1968;-38
2023/05/03 10:56:47;;;;;;;;;;;;;;;;;;5173313;27;1872;-39
2023/05/03 10:59:15;;;;;;;;;;;;;;;;;;5173479;27;1845;-46
2023/05/03 11:01:44;;;;;;;;;;;;;;;;;;5173201;27;2228;-39
2023/05/03 11:04:22;;;;;;;;;;;;;;;;;;5173550;27;2143;-39
2023/05/03 11:06:50;;;;;;;;;;;;;;;;;;5173171;27;1891;-40
2023/05/03 11:09:17;;;;;;;;;;;;;;;;;;5173397;27;1901;-40
2023/05/03 11:11:45;;;;;;;;;;;;;;;;;;5173251;27;1962;-39
2023/05/03 11:14:13;;;;;;;;;;;;;;;;;;5173120;27;2148;-38
2023/05/03 11:16:46;;;;;;;;;;;;;;;;;;5173350;27;1949;-51
2023/05/03 11:19:14;;;;;;;;;;;;;;;;;;5172993;27;1952;-46
2023/05/03 11:21:41;;;;;;;;;;;;;;;;;;5173050;27;2122;-46
2023/05/03 11:24:09;;;;;;;;;;;;;;;;;;5173060;27;2148;-44
2023/05/03 11:26:39;;;;;;;;;;;;;;;;;;5176100;27;1956;-39
2023/05/03 11:29:09;;;;;;;;;;;;;;;;;;5177014;27;1751;-40
2023/05/03 11:31:36;;;;;;;;;;;;;;;;;;5176826;27;2149;-41
2023/05/03 11:34:05;;;;;;;;;;;;;;;;;;5177231;27;2073;-39
2023/05/03 11:36:33;;;;;;;;;;;;;;;;;;5177024;27;2028;-39
2023/05/03 11:39:04;;;;;;;;;;;;;;;;;;5176834;27;1897;-43
2023/05/03 11:41:31;;;;;;;;;;;;;;;;;;5176881;27;1852;-41
2023/05/03 11:43:59;;;;;;;;;;;;;;;;;;5176915;27;2021;-39
2023/05/03 11:46:40;;;;;;;;;;;;;;;;;;5176649;27;2041;-40
2023/05/03 11:49:08;;;;;;;;;;;;;;;;;;5176580;27;1980;-42
2023/05/03 11:51:36;;;;;;;;;;;;;;;;;;5176476;27;1999;-39
2023/05/03 11:54:05;;;;;;;;;;;;;;;;;;5166632;27;2142;-40
2023/05/03 11:56:46;;;;;;;;;;;;;;;;;;5155495;27;2115;-41
2023/05/03 11:59:13;;;;;;;;;;;;;;;;;;5155582;27;2070;-40
2023/05/03 12:01:42;;;;;;;;;;;;;;;;;;5155457;27;1779;-45
2023/05/03 12:04:11;;;;;;;;;;;;;;;;;;5155297;27;1841;-40
2023/05/03 12:06:38;;;;;;;;;;;;;;;;;;5155730;27;2357;-40
2023/05/03 12:09:13;;;;;;;;;;;;;;;;;;5155438;27;1829;-40
2023/05/03 12:11:41;;;;;;;;;;;;;;;;;;5155270;27;2029;-39
2023/05/03 12:14:10;;;;;;;;;;;;;;;;;;5155066;27;1910;-50
2023/05/03 12:16:48;;;;;;;;;;;;;;;;;;5155127;27;2154;-40
2023/05/03 12:19:29;;;;;;;;;;;;;;;;;;5155226;27;1874;-39
2023/05/03 12:22:00;;;;;;;;;;;;;;;;;;5155100;27;2036;-40
2023/05/03 12:24:45;;;;;;;;;;;;;;;;;;5154953;27;2225;-39
2023/05/03 12:27:15;;;;;;;;;;;;;;;;;;5154843;27;1810;-39
2023/05/03 12:29:45;;;;;;;;;;;;;;;;;;5154975;27;1399;-40
2023/05/03 12:32:14;;;;;;;;;;;;;;;;;;5154857;27;1896;-40
2023/05/03 12:34:41;;;;;;;;;;;;;;;;;;5154582;27;1901;-39
2023/05/03 12:37:12;;;;;;;;;;;;;;;;;;5153811;27;2102;-42
2023/05/03 12:39:42;;;;;;;;;;;;;;;;;;5154786;27;2087;-40
2023/05/03 12:42:12;;;;;;;;;;;;;;;;;;5154409;27;1843;-41
2023/05/03 12:44:41;;;;;;;;;;;;;;;;;;5154941;27;1896;-40
2023/05/03 12:47:09;;;;;;;;;;;;;;;;;;5154646;27;1979;-40
2023/05/03 12:49:37;;;;;;;;;;;;;;;;;;5154604;27;1927;-40
2023/05/03 12:52:05;;;;;;;;;;;;;;;;;;5154395;27;2046;-41
2023/05/03 12:54:35;;;;;;;;;;;;;;;;;;5168964;27;1980;-44
2023/05/03 12:57:08;;;;;;;;;;;;;;;;;;5175395;27;2059;-40
2023/05/03 12:59:41;;;;;;;;;;;;;;;;;;5175195;27;1912;-42
2023/05/03 13:02:10;;;;;;;;;;;;;;;;;;5175715;27;2089;-40
2023/05/03 13:04:40;;;;;;;;;;;;;;;;;;5175165;27;1851;-40
2023/05/03 13:07:15;;;;;;;;;;;;;;;;;;5175208;27;1961;-40
2023/05/03 13:09:44;;;;;;;;;;;;;;;;;;5175010;27;1958;-40
2023/05/03 13:12:32;;;;;;;;;;;;;;;;;;5175050;27;1932;-46
2023/05/03 13:15:02;;;;;;;;;;;;;;;;;;5174751;27;2021;-43
2023/05/03 13:17:30;;;;;;;;;;;;;;;;;;5174680;27;1911;-41
2023/05/03 13:19:57;;;;;;;;;;;;;;;;;;5174931;27;1864;-40
2023/05/03 13:22:24;;;;;;;;;;;;;;;;;;5174634;27;1990;-41
2023/05/03 13:24:51;;;;;;;;;;;;;;;;;;5174852;27;1824;-43
2023/05/03 13:27:18;;;;;;;;;;;;;;;;;;5174605;27;1948;-39
2023/05/03 13:29:46;;;;;;;;;;;;;;;;;;5174241;27;2109;-45
2023/05/03 13:32:15;;;;;;;;;;;;;;;;;;5174519;27;2146;-42
2023/05/03 13:34:43;;;;;;;;;;;;;;;;;;5174605;27;1903;-40
2023/05/03 13:37:17;;;;;;;;;;;;;;;;;;5174488;27;2217;-39
2023/05/03 13:39:45;;;;;;;;;;;;;;;;;;5174334;27;1829;-40
2023/05/03 13:42:12;;;;;;;;;;;;;;;;;;5174339;27;2130;-42
2023/05/03 13:44:39;;;;;;;;;;;;;;;;;;5174747;27;1999;-43
2023/05/03 13:47:06;;;;;;;;;;;;;;;;;;5174318;27;2015;-43
2023/05/03 13:49:34;;;;;;;;;;;;;;;;;;5173095;27;1973;-41
2023/05/03 13:52:01;;;;;;;;;;;;;;;;;;5173990;27;2086;-40
2023/05/03 13:54:28;;;;;;;;;;;;;;;;;;5160253;27;2016;-40
2023/05/03 13:56:57;;;;;;;;;;;;;;;;;;5153360;27;1818;-43
2023/05/03 13:59:24;;;;;;;;;;;;;;;;;;5153365;27;1821;-42
2023/05/03 14:01:51;;;;;;;;;;;;;;;;;;5153318;27;1872;-40
2023/05/03 14:04:18;;;;;;;;;;;;;;;;;;5152902;27;2068;-41
2023/05/03 14:06:45;;;;;;;;;;;;;;;;;;5152822;27;2148;-44
2023/05/03 14:09:13;;;;;;;;;;;;;;;;;;5153147;27;1888;-49
2023/05/03 14:11:41;;;;;;;;;;;;;;;;;;5153185;27;1955;-40
2023/05/03 14:14:08;;;;;;;;;;;;;;;;;;5152755;27;2116;-39
2023/05/03 14:16:35;;;;;;;;;;;;;;;;;;5152827;27;2113;-40
2023/05/03 14:19:08;;;;;;;;;;;;;;;;;;5152909;27;1702;-48
2023/05/03 14:21:36;;;;;;;;;;;;;;;;;;5152961;27;1986;-40
2023/05/03 14:24:05;;;;;;;;;;;;;;;;;;5152609;27;1908;-39
2023/05/03 14:26:33;;;;;;;;;;;;;;;;;;5152649;27;1978;-43
2023/05/03 14:29:00;;;;;;;;;;;;;;;;;;5152965;27;1987;-39
2023/05/03 14:31:27;;;;;;;;;;;;;;;;;;5152888;27;2004;-40
2023/05/03 14:33:55;;;;;;;;;;;;;;;;;;5152769;27;1965;-40
2023/05/03 14:36:22;;;;;;;;;;;;;;;;;;5152749;27;1919;-38
2023/05/03 14:38:50;;;;;;;;;;;;;;;;;;5152845;27;2021;-40
2023/05/03 14:41:17;;;;;;;;;;;;;;;;;;5152655;27;2053;-49
2023/05/03 14:43:44;;;;;;;;;;;;;;;;;;5152803;27;1847;-39
2023/05/03 14:46:11;;;;;;;;;;;;;;;;;;5152630;27;2002;-39
2023/05/03 14:48:38;;;;;;;;;;;;;;;;;;5152732;27;1795;-41
2023/05/03 14:51:06;;;;;;;;;;;;;;;;;;5152605;27;1916;-40
2023/05/03 14:53:34;;;;;;;;;;;;;;;;;;5157588;27;1984;-40
2023/05/03 14:56:01;;;;;;;;;;;;;;;;;;5173339;27;2195;-40
2023/05/03 14:58:28;;;;;;;;;;;;;;;;;;5173400;27;1995;-40
2023/05/03 15:00:55;;;;;;;;;;;;;;;;;;5175394;27;2107;-40
2023/05/03 15:03:24;;;;;;;;;;;;;;;;;;5177356;27;2018;-39
2023/05/03 15:05:52;;;;;;;;;;;;;;;;;;5177676;27;1981;-52
2023/05/03 15:08:20;;;;;;;;;;;;;;;;;;5177457;27;2006;-40
2023/05/03 15:10:47;;;;;;;;;;;;;;;;;;5177457;27;2185;-53
2023/05/03 15:13:14;;;;;;;;;;;;;;;;;;5177373;27;2228;-41
2023/05/03 15:15:42;;;;;;;;;;;;;;;;;;5177227;27;2082;-39
2023/05/03 15:18:09;;;;;;;;;;;;;;;;;;5177232;27;2110;-41
2023/05/03 15:20:37;;;;;;;;;;;;;;;;;;5177263;27;2041;-43
2023/05/03 15:23:05;;;;;;;;;;;;;;;;;;5176924;27;1885;-44
2023/05/03 15:25:32;;;;;;;;;;;;;;;;;;5177073;27;1960;-40
2023/05/03 15:27:59;;;;;;;;;;;;;;;;;;5177031;27;1839;-48
2023/05/03 15:30:30;;;;;;;;;;;;;;;;;;5176832;27;1848;-47
2023/05/03 15:32:57;;;;;;;;;;;;;;;;;;5177064;27;1799;-51
2023/05/03 15:35:25;;;;;;;;;;;;;;;;;;5176823;27;2017;-48
2023/05/03 15:37:52;;;;;;;;;;;;;;;;;;5176804;27;2174;-49
2023/05/03 15:40:20;;;;;;;;;;;;;;;;;;5176963;27;1945;-40
2023/05/03 15:42:50;;;;;;;;;;;;;;;;;;5176829;27;1904;-39
2023/05/03 15:45:18;;;;;;;;;;;;;;;;;;5176672;27;1901;-40
2023/05/03 15:47:45;;;;;;;;;;;;;;;;;;5176502;27;2287;-40
2023/05/03 15:50:12;;;;;;;;;;;;;;;;;;5176576;27;2157;-39
2023/05/03 15:52:40;;;;;;;;;;;;;;;;;;5157512;27;1941;-41
2023/05/03 15:55:08;;;;;;;;;;;;;;;;;;5156962;27;1989;-39
2023/05/03 15:57:36;;;;;;;;;;;;;;;;;;5155483;27;1923;-42
2023/05/03 16:00:24;;;;;;;;;;;;;;;;;;5155406;27;2172;-40
2023/05/03 16:02:51;;;;;;;;;;;;;;;;;;5155361;27;1820;-40
2023/05/03 16:05:19;;;;;;;;;;;;;;;;;;5155505;27;1901;-40
2023/05/03 16:07:46;;;;;;;;;;;;;;;;;;5155349;27;2065;-43
2023/05/03 16:10:13;;;;;;;;;;;;;;;;;;5155133;27;2277;-39
2023/05/03 16:12:41;;;;;;;;;;;;;;;;;;5154170;27;1913;-45
2023/05/03 16:15:09;;;;;;;;;;;;;;;;;;5154962;27;2250;-39
2023/05/03 16:17:36;;;;;;;;;;;;;;;;;;5155077;27;1933;-40
2023/05/03 16:20:09;;;;;;;;;;;;;;;;;;5155193;27;2007;-44
2023/05/03 16:22:36;;;;;;;;;;;;;;;;;;5154985;27;1942;-40
2023/05/03 16:25:09;;;;;;;;;;;;;;;;;;5154947;27;2145;-48
2023/05/03 16:27:39;;;;;;;;;;;;;;;;;;5154836;27;2061;-51
2023/05/03 16:30:07;;;;;;;;;;;;;;;;;;5154839;27;2086;-50
2023/05/03 16:32:35;;;;;;;;;;;;;;;;;;5154863;27;1765;-51
2023/05/03 16:35:03;;;;;;;;;;;;;;;;;;5154519;27;1902;-47
2023/05/03 16:37:31;;;;;;;;;;;;;;;;;;5154714;27;2100;-49
2023/05/03 16:39:59;;;;;;;;;;;;;;;;;;5154542;27;2112;-40
2023/05/03 16:42:26;;;;;;;;;;;;;;;;;;5154755;27;1971;-40
2023/05/03 16:44:54;;;;;;;;;;;;;;;;;;5154935;27;1923;-39
2023/05/03 16:47:22;;;;;;;;;;;;;;;;;;5154685;27;1972;-45
2023/05/03 16:49:49;;;;;;;;;;;;;;;;;;5154617;27;1911;-46
2023/05/03 16:52:16;;;;;;;;;;;;;;;;;;5154420;27;1972;-39
2023/05/03 16:54:43;;;;;;;;;;;;;;;;;;5169934;27;2003;-46
2023/05/03 16:57:10;;;;;;;;;;;;;;;;;;5175146;27;2008;-47
2023/05/03 16:59:38;;;;;;;;;;;;;;;;;;5174883;27;2019;-45
2023/05/03 17:02:05;;;;;;;;;;;;;;;;;;5175024;27;1927;-49
2023/05/03 17:04:32;;;;;;;;;;;;;;;;;;5175005;27;1742;-46
2023/05/03 17:06:59;;;;;;;;;;;;;;;;;;5174895;27;2121;-43
2023/05/03 17:09:27;;;;;;;;;;;;;;;;;;5175181;27;1961;-43
2023/05/03 17:11:54;;;;;;;;;;;;;;;;;;5174933;27;2208;-45
2023/05/03 17:14:22;;;;;;;;;;;;;;;;;;5156585;27;1982;-51